createdAt,value
2018-10-02T00:03:02.667Z,6.43
2018-10-02T00:06:07.802Z,6.43
2018-10-02T00:09:13.416Z,5.93
2018-10-02T00:12:23.185Z,7.33
2018-10-02T00:15:27.468Z,6.67
2018-10-02T00:18:31.740Z,5.83
2018-10-02T00:21:36.020Z,6.37
2018-10-02T00:24:40.307Z,5.50
2018-10-02T00:27:44.611Z,6.10
2018-10-02T00:30:48.887Z,5.30
2018-10-02T00:33:53.174Z,5.73
2018-10-02T00:36:57.445Z,6.27
2018-10-02T00:40:01.740Z,5.60
2018-10-02T00:43:06.061Z,5.17
2018-10-02T00:46:10.347Z,5.50
2018-10-02T00:49:14.683Z,5.33
2018-10-02T00:52:18.947Z,5.40
2018-10-02T00:55:23.225Z,5.20
2018-10-02T00:58:27.583Z,4.27
2018-10-02T01:01:31.861Z,5.80
2018-10-02T01:04:36.209Z,5.40
2018-10-02T01:07:40.499Z,5.00
2018-10-02T01:10:44.780Z,5.03
2018-10-02T01:13:49.128Z,4.37
2018-10-02T01:16:53.469Z,4.47
2018-10-02T01:19:57.756Z,4.43
2018-10-02T01:23:02.095Z,5.25
2018-10-02T01:26:06.483Z,5.77
2018-10-02T01:29:10.780Z,5.00
2018-10-02T01:32:15.126Z,5.50
2018-10-02T01:35:19.539Z,5.77
2018-10-02T01:38:23.891Z,6.27
2018-10-02T01:41:28.956Z,4.70
2018-10-02T01:44:33.677Z,6.90
2018-10-02T01:47:38.001Z,5.70
2018-10-02T01:50:42.509Z,6.77
2018-10-02T01:53:46.795Z,5.87
2018-10-02T01:56:51.144Z,5.83
2018-10-02T01:59:55.508Z,5.97
2018-10-02T02:02:59.884Z,6.13
2018-10-02T02:06:04.207Z,6.67
2018-10-02T02:09:08.716Z,6.20
2018-10-02T02:12:13.028Z,5.87
2018-10-02T02:15:17.354Z,6.77
2018-10-02T02:18:21.637Z,6.07
2018-10-02T02:21:25.953Z,5.93
2018-10-02T02:24:30.391Z,6.33
2018-10-02T02:27:34.683Z,6.13
2018-10-02T02:30:38.960Z,6.47
2018-10-02T02:33:43.366Z,5.77
2018-10-02T02:36:48.907Z,5.23
2018-10-02T02:39:53.164Z,5.80
2018-10-02T02:42:57.464Z,6.17
2018-10-02T02:46:02.816Z,6.73
2018-10-02T02:49:12.361Z,6.30
2018-10-02T02:52:18.483Z,5.37
2018-10-02T02:55:22.784Z,4.30
2018-10-02T02:58:27.128Z,3.73
2018-10-02T03:01:31.437Z,3.97
2018-10-02T03:04:35.803Z,3.90
2018-10-02T03:07:40.123Z,2.63
2018-10-02T03:10:45.020Z,2.33
2018-10-02T03:13:49.481Z,2.33
2018-10-02T03:16:53.823Z,2.50
2018-10-02T03:19:58.380Z,2.47
2018-10-02T03:23:02.695Z,2.03
2018-10-02T03:26:07.274Z,2.40
2018-10-02T03:29:12.296Z,2.73
2018-10-02T03:32:16.624Z,2.33
2018-10-02T03:35:22.072Z,2.60
2018-10-02T03:38:26.759Z,2.63
2018-10-02T03:41:31.066Z,2.77
2018-10-02T03:44:35.364Z,2.27
2018-10-02T03:47:39.730Z,2.43
2018-10-02T03:50:44.635Z,3.07
2018-10-02T03:53:49.111Z,2.87
2018-10-02T03:56:53.416Z,3.27
2018-10-02T03:59:57.911Z,3.43
2018-10-02T04:03:02.312Z,2.90
2018-10-02T04:06:06.924Z,2.17
2018-10-02T04:09:12.059Z,2.50
2018-10-02T04:12:16.356Z,3.27
2018-10-02T04:15:20.663Z,3.03
2018-10-02T04:18:25.000Z,3.87
2018-10-02T04:21:33.841Z,3.93
2018-10-02T04:24:38.382Z,4.25
2018-10-02T04:27:45.761Z,4.00
2018-10-02T04:30:50.059Z,4.43
2018-10-02T04:33:54.853Z,5.27
2018-10-02T04:36:59.185Z,6.10
2018-10-02T04:40:03.517Z,5.40
2018-10-02T04:43:07.896Z,6.37
2018-10-02T04:46:12.235Z,4.73
2018-10-02T04:49:16.638Z,4.67
2018-10-02T04:52:21.293Z,4.93
2018-10-02T04:55:26.032Z,4.43
2018-10-02T04:58:30.324Z,5.87
2018-10-02T05:01:35.207Z,5.43
2018-10-02T05:04:39.557Z,5.33
2018-10-02T05:07:43.872Z,4.87
2018-10-02T05:10:48.184Z,4.70
2018-10-02T05:13:53.340Z,3.43
2018-10-02T05:16:57.877Z,4.10
2018-10-02T05:20:02.192Z,4.43
2018-10-02T05:23:06.626Z,4.63
2018-10-02T05:26:11.606Z,5.30
2018-10-02T05:29:15.996Z,5.50
2018-10-02T05:32:20.573Z,5.20
2018-10-02T05:35:24.917Z,5.93
2018-10-02T05:38:29.298Z,4.50
2018-10-02T05:41:33.747Z,4.90
2018-10-02T05:44:38.090Z,4.77
2018-10-02T05:47:42.541Z,4.07
2018-10-02T05:50:46.955Z,3.77
2018-10-02T05:53:51.274Z,4.10
2018-10-02T05:56:55.625Z,4.10
2018-10-02T05:59:59.951Z,4.77
2018-10-02T06:03:04.305Z,4.20
2018-10-02T06:06:08.614Z,3.73
2018-10-02T06:09:14.225Z,4.83
2018-10-02T06:12:18.652Z,4.47
2018-10-02T06:15:22.994Z,3.63
2018-10-02T06:18:27.424Z,4.90
2018-10-02T06:21:32.015Z,4.50
2018-10-02T06:24:37.047Z,5.13
2018-10-02T06:27:41.345Z,4.40
2018-10-02T06:30:45.707Z,4.30
2018-10-02T06:33:50.109Z,5.10
2018-10-02T06:36:57.542Z,4.30
2018-10-02T06:40:01.903Z,5.33
2018-10-02T06:43:06.281Z,5.62
2018-10-02T06:46:10.633Z,5.00
2018-10-02T06:49:15.873Z,5.80
2018-10-02T06:52:20.426Z,5.03
2018-10-02T06:55:24.612Z,5.17
2018-10-02T06:58:28.949Z,5.37
2018-10-02T07:01:33.261Z,5.13
2018-10-02T07:04:37.564Z,5.70
2018-10-02T07:07:42.061Z,5.27
2018-10-02T07:10:46.424Z,5.90
2018-10-02T07:13:50.833Z,5.60
2018-10-02T07:16:55.558Z,6.22
2018-10-02T07:20:00.015Z,6.33
2018-10-02T07:23:04.340Z,6.30
2018-10-02T07:26:09.224Z,6.57
2018-10-02T07:29:13.660Z,6.53
2018-10-02T07:32:18.244Z,7.07
2018-10-02T07:35:22.621Z,7.20
2018-10-02T07:38:27.074Z,6.70
2018-10-02T07:41:31.762Z,7.60
2018-10-02T07:44:36.219Z,6.50
2018-10-02T07:47:40.613Z,7.40
2018-10-02T07:50:45.329Z,6.63
2018-10-02T07:53:49.678Z,6.83
2018-10-02T07:56:54.109Z,6.60
2018-10-02T07:59:58.620Z,5.63
2018-10-02T08:03:02.983Z,5.63
2018-10-02T08:06:07.662Z,6.13
2018-10-02T08:09:12.867Z,5.03
2018-10-02T08:12:17.316Z,5.83
2018-10-02T08:15:21.759Z,5.93
2018-10-02T08:18:26.087Z,5.83
2018-10-02T08:21:30.471Z,6.30
2018-10-02T08:24:34.936Z,5.10
2018-10-02T08:27:40.182Z,5.20
2018-10-02T08:30:45.577Z,5.70
2018-10-02T08:33:50.116Z,6.17
2018-10-02T08:36:54.571Z,5.07
2018-10-02T08:39:59.017Z,4.63
2018-10-02T08:43:03.568Z,4.80
2018-10-02T08:46:08.238Z,4.87
2018-10-02T08:49:12.605Z,4.83
2018-10-02T08:52:17.103Z,4.10
2018-10-02T08:55:21.458Z,4.00
2018-10-02T08:58:26.596Z,3.43
2018-10-02T09:01:31.156Z,3.67
2018-10-02T09:04:35.709Z,2.67
2018-10-02T09:07:40.216Z,2.67
2018-10-02T09:10:44.824Z,2.57
2018-10-02T09:13:49.154Z,2.30
2018-10-02T09:16:54.105Z,2.57
2018-10-02T09:19:58.424Z,2.07
2018-10-02T09:23:03.690Z,2.63
2018-10-02T09:26:07.993Z,1.83
2018-10-02T09:29:12.300Z,2.30
2018-10-02T09:32:22.516Z,2.03
2018-10-02T09:35:32.275Z,2.20
2018-10-02T09:38:41.788Z,1.97
2018-10-02T09:41:51.672Z,2.23
2018-10-02T09:44:56.000Z,2.13
2018-10-02T09:48:04.404Z,1.30
2018-10-02T09:51:09.616Z,1.70
2018-10-02T09:54:14.185Z,1.73
2018-10-02T09:57:18.600Z,1.80
2018-10-02T10:00:27.097Z,1.80
2018-10-02T10:03:31.508Z,1.43
2018-10-02T10:06:35.902Z,1.57
2018-10-02T10:09:40.317Z,1.00
2018-10-02T10:12:45.237Z,1.67
2018-10-02T10:15:49.713Z,1.40
2018-10-02T10:18:54.208Z,1.40
2018-10-02T10:21:58.644Z,1.03
2018-10-02T10:25:03.159Z,1.47
2018-10-02T10:28:07.757Z,1.47
2018-10-02T10:31:12.523Z,1.40
2018-10-02T10:34:17.026Z,1.60
2018-10-02T10:37:21.345Z,1.50
2018-10-02T10:40:25.746Z,1.13
2018-10-02T10:43:30.233Z,1.20
2018-10-02T10:46:34.834Z,1.03
2018-10-02T10:49:39.638Z,1.33
2018-10-02T10:52:44.888Z,1.10
2018-10-02T10:55:49.143Z,1.50
2018-10-02T10:58:53.864Z,1.30
2018-10-02T11:01:58.393Z,0.90
2018-10-02T11:05:02.839Z,1.37
2018-10-02T11:08:07.153Z,1.00
2018-10-02T11:11:11.449Z,1.00
2018-10-02T11:14:16.832Z,0.70
2018-10-02T11:17:21.356Z,1.03
2018-10-02T11:20:30.253Z,0.60
2018-10-02T11:23:34.759Z,0.63
2018-10-02T11:26:40.281Z,0.80
2018-10-02T11:29:44.690Z,0.73
2018-10-02T11:32:49.139Z,0.70
2018-10-02T11:35:53.453Z,0.83
2018-10-02T11:38:57.772Z,0.70
2018-10-02T11:42:02.084Z,0.77
2018-10-02T11:45:06.539Z,0.80
2018-10-02T11:48:11.139Z,0.77
2018-10-02T11:51:15.570Z,0.60
2018-10-02T11:54:20.013Z,0.60
2018-10-02T11:57:24.374Z,0.85
2018-10-02T12:00:28.752Z,0.83
2018-10-02T12:03:33.083Z,0.67
2018-10-02T12:06:37.418Z,0.70
2018-10-02T12:09:41.906Z,0.67
2018-10-02T12:12:46.236Z,0.60
2018-10-02T12:15:50.535Z,1.20
2018-10-02T12:18:55.509Z,0.73
2018-10-02T12:21:59.969Z,0.80
2018-10-02T12:25:04.309Z,0.70
2018-10-02T12:28:08.808Z,1.00
2018-10-02T12:31:13.251Z,0.50
2018-10-02T12:34:17.672Z,1.00
2018-10-02T12:37:22.309Z,0.63
2018-10-02T12:40:26.708Z,0.80
2018-10-02T12:43:31.207Z,0.90
2018-10-02T12:46:35.888Z,1.00
2018-10-02T12:49:41.015Z,1.07
2018-10-02T12:52:45.876Z,0.88
2018-10-02T12:55:50.167Z,0.90
2018-10-02T12:58:54.594Z,0.90
2018-10-02T13:01:59.083Z,0.80
2018-10-02T13:05:03.723Z,0.93
2018-10-02T13:08:08.119Z,0.78
2018-10-02T13:11:12.816Z,1.10
2018-10-02T13:14:19.595Z,0.73
2018-10-02T13:17:24.069Z,0.97
2018-10-02T13:20:28.833Z,0.80
2018-10-02T13:23:33.929Z,0.70
2018-10-02T13:26:38.436Z,0.67
2018-10-02T13:29:42.838Z,0.63
2018-10-02T13:32:47.226Z,1.00
2018-10-02T13:35:51.589Z,1.00
2018-10-02T13:38:56.086Z,0.90
2018-10-02T13:42:00.675Z,0.70
2018-10-02T13:45:05.465Z,0.80
2018-10-02T13:48:09.785Z,0.83
2018-10-02T13:51:14.132Z,0.70
2018-10-02T13:54:18.515Z,0.87
2018-10-02T13:57:23.099Z,0.77
2018-10-02T14:00:27.664Z,1.00
2018-10-02T14:03:31.969Z,0.90
2018-10-02T14:06:36.350Z,0.90
2018-10-02T14:09:40.909Z,0.80
2018-10-02T14:12:45.288Z,1.33
2018-10-02T14:15:49.592Z,1.10
2018-10-02T14:18:53.994Z,1.30
2018-10-02T14:21:58.393Z,0.90
2018-10-02T14:25:02.797Z,1.20
2018-10-02T14:28:07.198Z,0.80
2018-10-02T14:31:13.278Z,1.20
2018-10-02T14:34:17.732Z,0.80
2018-10-02T14:37:22.127Z,0.90
2018-10-02T14:40:26.520Z,0.90
2018-10-02T14:43:30.898Z,0.90
2018-10-02T14:46:35.208Z,0.77
2018-10-02T14:49:39.691Z,0.85
2018-10-02T14:52:43.877Z,0.87
2018-10-02T14:55:48.233Z,0.90
2018-10-02T14:58:52.622Z,0.90
2018-10-02T15:01:57.025Z,0.70
2018-10-02T15:05:01.535Z,1.40
2018-10-02T15:08:05.880Z,1.80
2018-10-02T15:11:10.480Z,1.30
2018-10-02T15:14:14.801Z,0.80
2018-10-02T15:17:19.245Z,0.90
2018-10-02T15:20:23.624Z,0.97
2018-10-02T15:23:27.954Z,0.77
2018-10-02T15:26:32.260Z,0.70
2018-10-02T15:29:36.699Z,1.30
2018-10-02T15:32:41.020Z,1.20
2018-10-02T15:35:45.338Z,1.20
2018-10-02T15:38:49.754Z,1.17
2018-10-02T15:41:54.070Z,1.30
2018-10-02T15:44:58.456Z,1.07
2018-10-02T15:48:02.955Z,1.13
2018-10-02T15:51:07.339Z,1.20
2018-10-02T15:54:11.685Z,1.85
2018-10-02T15:57:16.071Z,1.47
2018-10-02T16:00:20.542Z,1.50
2018-10-02T16:03:24.973Z,1.60
2018-10-02T16:06:29.330Z,1.40
2018-10-02T16:09:33.917Z,1.03
2018-10-02T16:12:38.315Z,1.17
2018-10-02T16:15:42.602Z,1.27
2018-10-02T16:18:46.978Z,1.70
2018-10-02T16:21:51.341Z,3.10
2018-10-02T16:24:55.911Z,2.73
2018-10-02T16:28:00.256Z,2.50
2018-10-02T16:31:04.664Z,2.43
2018-10-02T16:34:09.008Z,2.77
2018-10-02T16:37:13.417Z,2.02
2018-10-02T16:40:17.861Z,1.97
2018-10-02T16:43:22.258Z,1.57
2018-10-02T16:46:26.559Z,1.67
2018-10-02T16:49:30.881Z,1.60
2018-10-02T16:52:35.227Z,1.33
2018-10-02T16:55:39.517Z,1.70
2018-10-02T16:58:43.800Z,1.53
2018-10-02T17:01:48.088Z,2.30
2018-10-02T17:04:52.381Z,3.37
2018-10-02T17:07:56.681Z,4.07
2018-10-02T17:11:00.976Z,3.57
2018-10-02T17:14:05.330Z,3.43
2018-10-02T17:17:09.668Z,2.93
2018-10-02T17:20:14.032Z,3.00
2018-10-02T17:23:18.432Z,2.80
2018-10-02T17:26:22.722Z,2.33
2018-10-02T17:29:27.124Z,2.70
2018-10-02T17:32:31.526Z,2.30
2018-10-02T17:35:36.119Z,1.80
2018-10-02T17:38:40.466Z,2.37
2018-10-02T17:41:44.753Z,3.07
2018-10-02T17:44:49.057Z,3.23
2018-10-02T17:47:53.360Z,2.60
2018-10-02T17:50:57.716Z,2.07
2018-10-02T17:54:02.173Z,2.20
2018-10-02T17:57:06.534Z,2.20
2018-10-02T18:00:10.836Z,1.77
2018-10-02T18:03:15.518Z,1.97
2018-10-02T18:06:19.832Z,2.27
2018-10-02T18:09:24.146Z,1.80
2018-10-02T18:12:28.464Z,2.02
2018-10-02T18:15:33.238Z,2.50
2018-10-02T18:18:37.624Z,2.25
2018-10-02T18:21:41.970Z,1.93
2018-10-02T18:24:46.502Z,1.90
2018-10-02T18:27:50.909Z,1.80
2018-10-02T18:30:55.220Z,2.10
2018-10-02T18:33:59.597Z,2.03
2018-10-02T18:37:07.924Z,2.03
2018-10-02T18:40:13.768Z,2.03
2018-10-02T18:43:21.546Z,2.00
2018-10-02T18:46:28.769Z,2.03
2018-10-02T18:49:34.992Z,2.03
2018-10-02T18:52:42.845Z,1.83
2018-10-02T18:55:56.075Z,2.63
2018-10-02T18:59:04.799Z,1.57
2018-10-02T19:02:09.641Z,1.57
2018-10-02T19:05:14.109Z,1.73
2018-10-02T19:08:23.908Z,1.83
2018-10-02T19:12:33.260Z,1.70
2018-10-02T19:15:43.115Z,1.80
2018-10-02T19:18:47.482Z,1.60
2018-10-02T19:21:51.807Z,1.23
2018-10-02T19:24:56.449Z,1.60
2018-10-02T19:28:00.836Z,1.70
2018-10-02T19:31:10.353Z,1.10
2018-10-02T19:34:15.020Z,1.20
2018-10-02T19:37:24.999Z,1.13
2018-10-02T19:40:29.625Z,1.40
2018-10-02T19:43:34.630Z,1.37
2018-10-02T19:47:12.422Z,1.40
2018-10-02T19:50:17.340Z,1.00
2018-10-02T19:53:22.121Z,1.30
2018-10-02T19:56:26.670Z,0.97
2018-10-02T19:59:31.204Z,0.90
2018-10-02T20:02:35.621Z,1.20
2018-10-02T20:05:39.973Z,1.00
2018-10-02T20:08:44.927Z,0.87
2018-10-02T20:11:49.328Z,0.83
2018-10-02T20:14:53.820Z,0.70
2018-10-02T20:17:58.006Z,0.90
2018-10-02T20:21:02.385Z,0.80
2018-10-02T20:24:07.228Z,1.13
2018-10-02T20:27:11.875Z,0.80
2018-10-02T20:30:16.257Z,1.00
2018-10-02T20:33:20.998Z,1.32
2018-10-02T20:36:25.336Z,1.00
2018-10-02T20:39:29.681Z,1.00
2018-10-02T20:42:34.063Z,1.00
2018-10-02T20:45:38.915Z,1.00
2018-10-02T20:48:43.348Z,1.20
2018-10-02T20:51:47.928Z,0.93
2018-10-02T20:54:53.837Z,0.73
2018-10-02T20:57:58.812Z,0.90
2018-10-02T21:01:03.905Z,0.90
2018-10-02T21:04:08.450Z,1.10
2018-10-02T21:07:12.847Z,0.70
2018-10-02T21:10:17.259Z,0.80
2018-10-02T21:13:21.839Z,0.80
2018-10-02T21:16:27.198Z,0.90
2018-10-02T21:19:31.753Z,0.77
2018-10-02T21:22:36.165Z,1.00
2018-10-02T21:25:40.589Z,0.70
2018-10-02T21:28:45.139Z,0.90
2018-10-02T21:31:49.567Z,0.90
2018-10-02T21:34:54.345Z,0.90
2018-10-02T21:37:58.877Z,0.90
2018-10-02T21:41:03.391Z,0.87
2018-10-02T21:44:07.913Z,0.98
2018-10-02T21:47:13.918Z,0.80
2018-10-02T21:50:18.478Z,0.97
2018-10-02T21:53:22.901Z,0.90
2018-10-02T21:56:27.769Z,0.90
2018-10-02T21:59:32.093Z,1.20
2018-10-02T22:02:36.641Z,0.90
2018-10-02T22:05:40.964Z,1.13
2018-10-02T22:08:45.797Z,1.23
2018-10-02T22:11:51.030Z,1.10
2018-10-02T22:14:55.491Z,1.20
2018-10-02T22:17:59.808Z,1.30
2018-10-02T22:21:04.874Z,1.00
2018-10-02T22:24:09.425Z,1.00
2018-10-02T22:27:13.764Z,1.30
2018-10-02T22:30:19.519Z,1.30
2018-10-02T22:33:23.925Z,1.50
2018-10-02T22:36:28.314Z,1.67
2018-10-02T22:39:32.679Z,1.47
2018-10-02T22:42:37.738Z,1.47
2018-10-02T22:45:42.403Z,1.33
2018-10-02T22:48:46.726Z,1.10
2018-10-02T22:51:51.055Z,1.07
2018-10-02T22:54:55.723Z,1.30
2018-10-02T22:58:00.280Z,1.20
2018-10-02T23:01:04.876Z,1.37
2018-10-02T23:04:09.642Z,1.50
2018-10-02T23:07:14.105Z,1.13
2018-10-02T23:10:19.244Z,1.40
2018-10-02T23:13:23.635Z,1.40
2018-10-02T23:16:28.134Z,1.67
2018-10-02T23:19:32.704Z,1.17
2018-10-02T23:22:37.072Z,1.53
2018-10-02T23:25:41.653Z,1.20
2018-10-02T23:28:46.662Z,1.10
2018-10-02T23:31:51.147Z,1.30
2018-10-02T23:34:55.755Z,1.30
2018-10-02T23:38:00.117Z,1.27
2018-10-02T23:41:04.505Z,1.17
2018-10-02T23:44:08.909Z,1.07
2018-10-02T23:47:13.313Z,1.77
2018-10-02T23:50:17.633Z,1.30
2018-10-02T23:53:22.084Z,1.30
2018-10-02T23:56:26.932Z,0.90
2018-10-02T23:59:31.327Z,1.20
